Time;durP1;ratioP1;P1;durP2;ratioP2;P2;SDS_P1;SDS_P2;PMS_P1;PMS_P2;Temp;Humidity;BMP_temperature;BMP_pressure;BME280_temperature;BME280_humidity;BME280_pressure;Samples;Min_cycle;Max_cycle;Signal;HPM_P1;HPM_P2
2023/08/24 00:00:59;;;;;;;18.13;12.57;;;26.70;65.20;;;;;;5117311;28;20024;-60
2023/08/24 00:03:25;;;;;;;16.70;12.43;;;26.70;65.10;;;;;;5117175;28;20028;-61
2023/08/24 00:05:51;;;;;;;15.52;11.85;;;26.70;65.10;;;;;;5117242;28;20040;-60
2023/08/24 00:08:17;;;;;;;19.70;12.93;;;26.70;65.20;;;;;;5117108;28;20023;-60
2023/08/24 00:10:47;;;;;;;16.65;11.95;;;26.70;65.10;;;;;;5117633;28;20043;-61
2023/08/24 00:13:14;;;;;;;15.82;12.05;;;26.70;65.10;;;;;;5117250;28;20023;-60
2023/08/24 00:15:40;;;;;;;16.33;11.73;;;26.70;65.10;;;;;;5117047;28;20047;-60
2023/08/24 00:18:06;;;;;;;17.02;11.88;;;26.70;65.10;;;;;;5116278;28;20103;-61
2023/08/24 00:20:33;;;;;;;14.68;11.20;;;26.70;65.10;;;;;;5117444;28;20019;-60
2023/08/24 00:23:00;;;;;;;14.98;10.80;;;26.70;65.00;;;;;;5116753;28;20059;-60
2023/08/24 00:25:26;;;;;;;15.05;11.52;;;26.70;65.00;;;;;;5117050;28;20038;-61
2023/08/24 00:27:55;;;;;;;14.52;11.05;;;26.70;64.90;;;;;;5117035;28;20023;-60
2023/08/24 00:30:21;;;;;;;14.18;10.77;;;26.70;64.90;;;;;;5117246;28;20026;-60
2023/08/24 00:32:47;;;;;;;13.68;10.90;;;26.60;64.80;;;;;;5116570;28;20027;-60
2023/08/24 00:35:13;;;;;;;13.80;10.95;;;26.60;64.90;;;;;;5116606;28;20441;-60
2023/08/24 00:37:41;;;;;;;14.73;11.60;;;26.60;64.80;;;;;;5116776;28;20068;-61
2023/08/24 00:40:10;;;;;;;14.45;10.57;;;26.70;64.80;;;;;;5115527;28;20379;-61
2023/08/24 00:42:45;;;;;;;14.30;10.82;;;26.60;64.80;;;;;;5116333;28;20019;-60
2023/08/24 00:45:12;;;;;;;14.77;9.88;;;26.60;64.90;;;;;;5116712;28;20016;-60
2023/08/24 00:47:40;;;;;;;11.80;10.00;;;26.60;64.80;;;;;;5116396;28;20401;-61
2023/08/24 00:50:08;;;;;;;12.40;10.30;;;26.60;64.90;;;;;;5116108;28;20044;-60
2023/08/24 00:52:35;;;;;;;15.30;10.00;;;26.60;64.80;;;;;;5116822;28;20032;-60
2023/08/24 00:55:02;;;;;;;11.80;10.10;;;26.60;64.70;;;;;;5116260;28;20378;-60
2023/08/24 00:57:28;;;;;;;10.98;8.93;;;26.60;64.70;;;;;;5116692;28;20084;-60
2023/08/24 00:59:58;;;;;;;16.95;10.88;;;26.60;64.70;;;;;;5115954;28;20119;-61
2023/08/24 01:02:24;;;;;;;13.13;10.50;;;26.60;64.70;;;;;;5115784;28;20036;-60
2023/08/24 01:04:50;;;;;;;11.80;9.60;;;26.60;64.70;;;;;;5116576;28;20497;-61
2023/08/24 01:07:18;;;;;;;10.73;8.90;;;26.60;64.70;;;;;;5116081;28;20066;-61
2023/08/24 01:09:44;;;;;;;13.13;9.95;;;26.60;64.80;;;;;;5116016;28;20019;-60
2023/08/24 01:12:39;;;;;;;16.92;9.88;;;26.60;64.90;;;;;;5116304;28;20031;-61
2023/08/24 01:15:32;;;;;;;12.10;9.90;;;26.50;65.30;;;;;;5115497;28;20023;-61
2023/08/24 01:18:04;;;;;;;14.07;9.13;;;26.50;65.60;;;;;;5109589;28;20059;-61
2023/08/24 01:20:30;;;;;;;12.90;9.43;;;26.40;65.20;;;;;;5116446;28;20412;-60
2023/08/24 01:23:24;;;;;;;11.00;9.50;;;26.40;65.30;;;;;;5115769;28;20038;-60
2023/08/24 01:26:26;;;;;;;12.02;9.77;;;26.40;65.90;;;;;;5116098;28;20043;-60
2023/08/24 01:28:53;;;;;;;11.73;9.40;;;26.40;65.40;;;;;;5054120;28;20067;-60
2023/08/24 01:31:19;;;;;;;13.77;9.65;;;26.40;65.50;;;;;;5053426;28;20041;-60
2023/08/24 01:33:46;;;;;;;13.38;10.60;;;26.30;65.60;;;;;;5053353;28;20410;-60
2023/08/24 01:36:14;;;;;;;15.50;10.77;;;26.30;65.70;;;;;;5053388;28;20025;-61
2023/08/24 01:38:41;;;;;;;12.63;10.02;;;26.30;65.90;;;;;;5053321;28;20060;-60
2023/08/24 01:41:16;;;;;;;14.07;10.80;;;26.30;65.80;;;;;;5053371;28;20036;-61
2023/08/24 01:43:46;;;;;;;13.38;9.70;;;26.30;65.80;;;;;;5053230;28;20033;-60
2023/08/24 01:46:16;;;;;;;13.57;9.98;;;26.30;65.80;;;;;;5053798;28;20497;-61
2023/08/24 01:48:44;;;;;;;12.20;9.70;;;26.30;65.70;;;;;;5053857;28;20083;-61
2023/08/24 01:51:10;;;;;;;12.27;9.18;;;26.30;65.70;;;;;;5052985;28;20123;-60
2023/08/24 01:53:38;;;;;;;12.23;8.88;;;26.30;65.70;;;;;;5053715;28;20029;-61
2023/08/24 01:56:14;;;;;;;15.93;9.27;;;26.30;65.60;;;;;;5053243;28;20216;-60
2023/08/24 01:58:41;;;;;;;13.48;10.00;;;26.20;65.60;;;;;;5053273;28;20104;-61
2023/08/24 02:01:08;;;;;;;13.73;10.57;;;26.30;65.70;;;;;;5053677;28;20021;-61
2023/08/24 02:03:34;;;;;;;11.82;9.73;;;26.30;65.50;;;;;;5062684;28;20169;-60
2023/08/24 02:06:00;;;;;;;14.93;9.73;;;26.20;65.40;;;;;;5115403;28;20326;-60
2023/08/24 02:08:26;;;;;;;14.13;9.68;;;26.30;65.60;;;;;;5114438;28;20027;-60
2023/08/24 02:10:52;;;;;;;11.52;8.75;;;26.20;65.50;;;;;;5115377;28;20024;-61
2023/08/24 02:13:18;;;;;;;14.48;9.80;;;26.20;65.40;;;;;;5118249;28;20027;-61
2023/08/24 02:15:44;;;;;;;11.55;9.52;;;26.20;65.40;;;;;;5119894;28;20386;-60
2023/08/24 02:18:10;;;;;;;14.55;9.45;;;26.30;65.50;;;;;;5119266;28;20028;-60
2023/08/24 02:20:37;;;;;;;13.45;9.55;;;26.20;65.40;;;;;;5119266;28;20057;-60
2023/08/24 02:23:04;;;;;;;11.52;8.43;;;26.20;65.40;;;;;;5119138;28;20085;-60
2023/08/24 02:25:31;;;;;;;12.40;8.32;;;26.30;65.40;;;;;;5119432;28;20050;-60
2023/08/24 02:27:57;;;;;;;10.98;8.02;;;26.20;65.30;;;;;;5119055;28;20027;-60
2023/08/24 02:30:23;;;;;;;13.63;8.90;;;26.20;65.40;;;;;;5119576;28;20035;-60
2023/08/24 02:32:50;;;;;;;9.88;7.90;;;26.20;65.40;;;;;;5119165;28;20019;-60
2023/08/24 02:35:17;;;;;;;13.65;9.40;;;26.20;65.30;;;;;;5119161;28;20044;-60
2023/08/24 02:37:44;;;;;;;11.73;8.57;;;26.20;65.40;;;;;;5118770;28;20039;-61
2023/08/24 02:40:10;;;;;;;11.20;8.63;;;26.20;65.40;;;;;;5119151;28;20497;-60
2023/08/24 02:42:36;;;;;;;11.38;8.85;;;26.20;65.50;;;;;;5119062;28;20016;-61
2023/08/24 02:45:02;;;;;;;13.23;8.73;;;26.20;65.60;;;;;;5118755;28;20028;-60
2023/08/24 02:47:28;;;;;;;11.88;8.93;;;26.10;65.70;;;;;;5119038;28;20157;-60
2023/08/24 02:49:54;;;;;;;12.50;8.77;;;26.10;65.90;;;;;;5118714;28;20103;-61
2023/08/24 02:52:20;;;;;;;11.60;8.43;;;26.00;66.00;;;;;;5119475;28;20051;-61
2023/08/24 02:54:46;;;;;;;11.85;8.70;;;26.00;66.10;;;;;;5118554;28;20024;-60
2023/08/24 02:57:12;;;;;;;11.00;8.38;;;25.90;66.30;;;;;;5118540;28;20066;-60
2023/08/24 02:59:39;;;;;;;9.63;8.15;;;25.90;66.30;;;;;;5119036;28;20047;-60
2023/08/24 03:02:04;;;;;;;11.32;8.52;;;25.90;66.50;;;;;;5118491;28;20092;-60
2023/08/24 03:04:30;;;;;;;12.32;9.00;;;25.80;66.80;;;;;;5118403;28;20516;-60
2023/08/24 03:06:56;;;;;;;10.57;8.73;;;25.70;66.80;;;;;;5118366;28;20030;-61
2023/08/24 03:09:22;;;;;;;12.90;9.15;;;25.70;66.90;;;;;;5118385;28;20023;-61
2023/08/24 03:11:48;;;;;;;11.55;9.10;;;25.70;67.00;;;;;;5118354;28;20024;-60
2023/08/24 03:14:14;;;;;;;12.80;8.98;;;25.60;67.10;;;;;;5118237;28;20424;-61
2023/08/24 03:16:40;;;;;;;10.93;8.60;;;25.60;67.20;;;;;;5118148;28;20023;-60
2023/08/24 03:19:07;;;;;;;10.73;8.50;;;25.50;67.30;;;;;;5118173;28;20012;-60
2023/08/24 03:21:33;;;;;;;10.48;8.30;;;25.50;67.50;;;;;;5118377;28;20098;-60
2023/08/24 03:23:59;;;;;;;12.50;8.60;;;25.40;67.70;;;;;;5117118;28;20430;-60
2023/08/24 03:26:25;;;;;;;12.00;8.80;;;25.40;67.80;;;;;;5118276;28;20060;-60
2023/08/24 03:28:51;;;;;;;13.32;8.70;;;25.40;67.90;;;;;;5117861;28;20016;-60
2023/08/24 03:31:17;;;;;;;12.18;9.52;;;25.40;67.90;;;;;;5118447;28;20024;-60
2023/08/24 03:33:43;;;;;;;10.88;9.23;;;25.40;68.10;;;;;;5117742;28;20024;-60
2023/08/24 03:36:09;;;;;;;12.80;9.43;;;25.40;68.20;;;;;;5118330;28;20077;-60
2023/08/24 03:38:35;;;;;;;12.90;9.68;;;25.30;68.30;;;;;;5118254;28;20028;-60
2023/08/24 03:41:03;;;;;;;12.57;9.73;;;25.30;68.50;;;;;;5116730;28;20027;-60
2023/08/24 03:43:36;;;;;;;11.75;9.52;;;25.20;68.70;;;;;;5117728;27;20088;-60
2023/08/24 03:46:05;;;;;;;12.90;8.70;;;25.20;68.70;;;;;;5117644;28;20039;-60
2023/08/24 03:48:32;;;;;;;12.48;9.32;;;25.20;68.70;;;;;;5116625;28;20024;-60
2023/08/24 03:50:58;;;;;;;13.02;9.30;;;25.20;68.70;;;;;;5116436;28;20079;-60
2023/08/24 03:53:24;;;;;;;13.13;9.82;;;25.20;68.60;;;;;;5117707;28;20031;-60
2023/08/24 03:55:52;;;;;;;13.93;9.15;;;25.20;68.50;;;;;;5117710;28;20141;-60
2023/08/24 03:58:18;;;;;;;12.15;9.60;;;25.30;68.50;;;;;;5117586;28;20059;-60
2023/08/24 04:00:45;;;;;;;14.98;9.50;;;25.40;68.40;;;;;;5117900;28;20035;-61
2023/08/24 04:03:11;;;;;;;13.38;10.20;;;25.40;68.20;;;;;;5117234;28;20019;-60
2023/08/24 04:05:37;;;;;;;14.13;10.15;;;25.40;68.10;;;;;;5117256;28;20027;-60
2023/08/24 04:08:04;;;;;;;11.57;9.32;;;25.40;68.00;;;;;;5117447;28;20019;-60
2023/08/24 04:10:30;;;;;;;14.00;10.73;;;25.50;67.80;;;;;;5117693;28;20489;-60
2023/08/24 04:12:56;;;;;;;11.95;9.65;;;25.50;67.70;;;;;;5117542;28;20312;-60
2023/08/24 04:15:22;;;;;;;14.20;10.75;;;25.50;67.60;;;;;;5117350;28;20023;-60
2023/08/24 04:17:49;;;;;;;13.18;9.82;;;25.50;67.50;;;;;;5116956;28;20348;-60
2023/08/24 04:20:15;;;;;;;13.75;8.98;;;25.50;67.40;;;;;;5117213;28;20032;-60
2023/08/24 04:22:42;;;;;;;11.10;9.00;;;25.50;67.30;;;;;;5117157;28;20024;-60
2023/08/24 04:25:08;;;;;;;11.38;8.48;;;25.60;67.30;;;;;;5117170;28;20024;-60
2023/08/24 04:27:34;;;;;;;11.10;8.93;;;25.60;67.40;;;;;;5117571;28;20043;-61
2023/08/24 04:30:00;;;;;;;12.80;9.30;;;25.50;67.50;;;;;;5117067;28;20478;-60
2023/08/24 04:32:27;;;;;;;12.48;9.25;;;25.50;67.60;;;;;;5116694;28;20478;-61
2023/08/24 04:34:54;;;;;;;13.55;10.20;;;25.50;67.70;;;;;;5116904;28;20035;-60
2023/08/24 04:37:20;;;;;;;14.07;9.82;;;25.50;67.90;;;;;;5117127;28;20027;-60
2023/08/24 04:39:46;;;;;;;12.90;9.57;;;25.40;67.80;;;;;;5116607;28;20019;-60
2023/08/24 04:42:12;;;;;;;13.23;9.85;;;25.50;67.90;;;;;;5116554;28;20027;-60
2023/08/24 04:44:38;;;;;;;11.93;8.93;;;25.50;67.90;;;;;;5116956;28;20019;-60
2023/08/24 04:47:04;;;;;;;12.43;10.05;;;25.50;68.00;;;;;;5116495;28;20353;-61
2023/08/24 04:49:30;;;;;;;13.57;9.32;;;25.60;68.00;;;;;;5116734;28;20026;-60
2023/08/24 04:51:56;;;;;;;13.30;9.63;;;25.70;67.90;;;;;;5116164;28;20044;-60
2023/08/24 04:54:22;;;;;;;12.82;8.95;;;25.70;67.80;;;;;;5116275;28;20073;-60
2023/08/24 04:56:48;;;;;;;12.80;9.90;;;25.80;67.90;;;;;;5116469;28;20023;-60
2023/08/24 04:59:14;;;;;;;12.43;9.95;;;25.90;67.80;;;;;;5116322;28;20047;-60
2023/08/24 05:01:40;;;;;;;13.80;9.18;;;25.90;67.60;;;;;;5116252;28;20337;-61
2023/08/24 05:04:06;;;;;;;12.70;9.55;;;26.00;67.40;;;;;;5116366;28;20436;-61
2023/08/24 05:06:32;;;;;;;12.88;9.70;;;26.20;67.30;;;;;;5116362;28;20072;-60
2023/08/24 05:08:58;;;;;;;13.05;8.90;;;26.30;67.20;;;;;;5116131;28;20019;-60
2023/08/24 05:11:31;;;;;;;13.32;8.98;;;26.40;67.00;;;;;;5116044;28;20447;-61
2023/08/24 05:13:57;;;;;;;;;;;26.70;66.80;;;;;;5116619;28;20046;-60
2023/08/24 05:16:24;;;;;;;12.90;8.80;;;27.00;67.50;;;;;;5116000;28;20332;-61
2023/08/24 05:18:50;;;;;;;14.18;9.57;;;27.60;65.30;;;;;;5115837;28;20348;-61
2023/08/24 05:21:16;;;;;;;13.70;9.13;;;28.20;64.00;;;;;;5115913;28;20015;-61
2023/08/24 05:23:42;;;;;;;11.70;9.35;;;28.90;62.70;;;;;;5115943;28;20026;-61
2023/08/24 05:26:07;;;;;;;12.93;9.73;;;29.50;61.50;;;;;;5116173;28;20032;-61
2023/08/24 05:28:34;;;;;;;12.88;9.80;;;30.20;60.20;;;;;;5115817;28;20050;-61
2023/08/24 05:31:00;;;;;;;13.90;9.30;;;30.90;58.90;;;;;;5116066;28;20449;-61
2023/08/24 05:33:26;;;;;;;13.57;9.32;;;31.50;57.70;;;;;;5116253;28;20436;-61
2023/08/24 05:35:53;;;;;;;12.70;9.25;;;32.10;56.50;;;;;;5115722;28;20347;-61
2023/08/24 05:38:19;;;;;;;12.20;8.75;;;32.70;55.20;;;;;;5115926;28;20032;-61
2023/08/24 05:40:49;;;;;;;12.60;9.23;;;33.40;54.00;;;;;;5115940;28;20443;-61
2023/08/24 05:43:15;;;;;;;11.95;8.90;;;33.90;52.90;;;;;;5115901;28;20030;-61
2023/08/24 05:45:44;;;;;;;12.75;9.23;;;34.50;51.80;;;;;;5115977;28;20027;-61
2023/08/24 05:48:10;;;;;;;11.88;8.73;;;35.10;50.80;;;;;;5118459;28;20020;-61
2023/08/24 05:50:37;;;;;;;13.45;8.60;;;35.70;49.80;;;;;;5119570;28;20078;-61
2023/08/24 05:53:04;;;;;;;13.63;8.77;;;36.30;48.80;;;;;;5119744;28;20027;-59
2023/08/24 05:55:30;;;;;;;13.57;8.63;;;37.00;47.60;;;;;;5119764;28;20024;-60
2023/08/24 05:57:56;;;;;;;13.18;9.20;;;37.50;46.70;;;;;;5120202;28;20428;-61
2023/08/24 06:00:22;;;;;;;11.55;8.82;;;38.20;45.60;;;;;;5120242;28;20064;-61
2023/08/24 06:02:48;;;;;;;11.35;8.48;;;38.80;44.70;;;;;;5119512;28;20038;-61
2023/08/24 06:05:17;;;;;;;11.80;8.55;;;39.50;43.70;;;;;;5119628;28;20012;-62
2023/08/24 06:07:43;;;;;;;12.90;8.70;;;40.10;42.80;;;;;;5119530;28;20475;-62
2023/08/24 06:10:10;;;;;;;9.13;7.82;;;40.70;41.90;;;;;;5119550;28;20028;-62
2023/08/24 06:12:36;;;;;;;10.00;8.23;;;41.20;41.10;;;;;;5119383;28;20042;-62
2023/08/24 06:15:04;;;;;;;10.25;7.90;;;41.80;40.20;;;;;;5119449;28;20020;-61
2023/08/24 06:17:30;;;;;;;11.57;8.23;;;42.30;39.30;;;;;;5119261;28;20110;-62
2023/08/24 06:19:57;;;;;;;10.85;8.15;;;42.80;38.40;;;;;;5119365;28;20056;-62
2023/08/24 06:22:22;;;;;;;8.93;7.32;;;43.30;37.70;;;;;;5119615;28;20035;-62
2023/08/24 06:24:49;;;;;;;11.82;8.48;;;43.80;37.10;;;;;;5119174;28;20020;-62
2023/08/24 06:27:15;;;;;;;10.57;7.90;;;44.30;36.20;;;;;;5119153;28;20030;-62
2023/08/24 06:29:43;;;;;;;11.88;7.95;;;44.60;35.00;;;;;;5119150;28;20019;-62
2023/08/24 06:32:09;;;;;;;10.50;7.70;;;45.00;34.60;;;;;;5119653;28;20093;-62
2023/08/24 06:34:35;;;;;;;10.23;7.95;;;45.30;34.20;;;;;;5119512;28;20072;-62
2023/08/24 06:37:03;;;;;;;10.77;7.70;;;45.70;33.60;;;;;;5119201;28;20043;-62
2023/08/24 06:39:29;;;;;;;10.15;8.00;;;46.10;33.00;;;;;;5119264;28;20023;-62
2023/08/24 06:41:55;;;;;;;9.55;8.25;;;46.40;32.70;;;;;;5119201;28;20020;-62
2023/08/24 06:44:21;;;;;;;10.18;7.80;;;46.80;32.20;;;;;;5118930;28;20023;-62
2023/08/24 06:46:47;;;;;;;8.93;8.02;;;47.10;32.00;;;;;;5119316;28;20028;-62
2023/08/24 06:49:14;;;;;;;11.60;7.95;;;47.30;31.70;;;;;;5119394;28;20011;-62
2023/08/24 06:51:40;;;;;;;11.05;8.15;;;47.50;31.40;;;;;;5118566;28;20375;-62
2023/08/24 06:54:06;;;;;;;10.35;8.40;;;47.80;31.10;;;;;;5119188;28;20106;-62
2023/08/24 06:56:32;;;;;;;11.65;8.07;;;48.00;30.90;;;;;;5118674;28;20066;-62
2023/08/24 06:58:58;;;;;;;11.13;8.27;;;48.20;30.70;;;;;;5117160;28;20051;-62
2023/08/24 07:01:25;;;;;;;10.63;7.82;;;48.30;30.20;;;;;;5119151;28;20023;-62
2023/08/24 07:03:51;;;;;;;10.32;7.90;;;48.40;30.10;;;;;;5118501;28;20016;-62
2023/08/24 07:06:17;;;;;;;10.00;7.75;;;48.60;29.90;;;;;;5118523;28;20080;-62
2023/08/24 07:08:43;;;;;;;10.48;8.40;;;48.70;29.80;;;;;;5118428;28;20019;-62
2023/08/24 07:11:10;;;;;;;9.40;7.80;;;48.80;29.60;;;;;;5118399;28;20357;-62
2023/08/24 07:13:36;;;;;;;12.73;8.55;;;48.90;29.60;;;;;;5118840;28;20115;-62
2023/08/24 07:16:05;;;;;;;11.93;8.00;;;48.90;29.10;;;;;;5118284;28;20059;-62
2023/08/24 07:18:31;;;;;;;10.60;8.10;;;48.90;29.00;;;;;;5117157;28;20028;-62
2023/08/24 07:20:57;;;;;;;9.23;7.90;;;48.90;29.00;;;;;;5118141;28;20023;-62
2023/08/24 07:23:23;;;;;;;9.70;8.10;;;48.70;29.00;;;;;;5118008;28;20073;-62
2023/08/24 07:25:49;;;;;;;11.98;8.25;;;47.90;29.30;;;;;;5117085;28;20020;-62
2023/08/24 07:28:15;;;;;;;9.52;7.55;;;46.80;30.10;;;;;;5118055;28;20333;-62
2023/08/24 07:30:41;;;;;;;9.85;8.45;;;45.60;31.10;;;;;;5118285;28;20023;-62
2023/08/24 07:33:07;;;;;;;10.52;8.48;;;44.50;31.90;;;;;;5118453;28;20031;-62
2023/08/24 07:35:33;;;;;;;14.35;8.65;;;43.50;33.00;;;;;;5118437;28;20116;-62
2023/08/24 07:38:00;;;;;;;14.25;9.07;;;42.70;33.90;;;;;;5117831;28;20051;-62
2023/08/24 07:40:26;;;;;;;10.90;8.50;;;42.00;34.70;;;;;;5118072;28;20085;-62
2023/08/24 07:42:55;;;;;;;13.65;8.65;;;41.50;35.60;;;;;;5117706;28;20453;-62
2023/08/24 07:45:21;;;;;;;11.73;8.63;;;41.10;36.00;;;;;;5117963;28;20055;-62
2023/08/24 07:47:47;;;;;;;13.88;9.07;;;40.90;36.40;;;;;;5117934;28;20385;-62
2023/08/24 07:50:13;;;;;;;10.38;8.18;;;40.60;36.70;;;;;;5117661;28;20052;-62
2023/08/24 07:52:39;;;;;;;11.63;8.13;;;40.40;37.10;;;;;;5117794;28;20090;-61
2023/08/24 07:55:09;;;;;;;11.27;8.30;;;40.40;37.40;;;;;;5118026;28;20031;-61
2023/08/24 07:57:36;;;;;;;11.25;8.30;;;40.20;37.40;;;;;;5117677;28;20015;-60
2023/08/24 08:00:04;;;;;;;9.23;7.82;;;40.20;37.70;;;;;;5117973;28;20016;-60
2023/08/24 08:02:32;;;;;;;11.65;8.57;;;40.00;37.90;;;;;;5117222;28;20023;-61
2023/08/24 08:04:59;;;;;;;11.18;8.80;;;39.90;37.80;;;;;;5117231;28;20084;-62
2023/08/24 08:07:26;;;;;;;10.32;8.70;;;39.90;38.00;;;;;;5117516;28;20024;-62
2023/08/24 08:09:53;;;;;;;12.38;8.52;;;39.80;37.90;;;;;;5117329;28;20153;-61
2023/08/24 08:12:18;;;;;;;9.63;8.18;;;39.80;37.80;;;;;;5117153;28;20049;-61
2023/08/24 08:14:44;;;;;;;11.48;8.70;;;39.80;37.90;;;;;;5117049;28;20023;-61
2023/08/24 08:17:11;;;;;;;11.57;8.35;;;39.80;37.90;;;;;;5117052;28;20097;-60
2023/08/24 08:19:37;;;;;;;11.13;8.38;;;39.70;38.00;;;;;;5117487;28;20423;-60
2023/08/24 08:22:04;;;;;;;10.70;8.50;;;39.70;37.90;;;;;;5116730;28;20015;-60
2023/08/24 08:24:30;;;;;;;9.85;8.38;;;39.60;37.80;;;;;;5116052;28;20043;-60
2023/08/24 08:26:56;;;;;;;11.20;8.93;;;39.50;37.70;;;;;;5117120;28;20019;-60
2023/08/24 08:29:22;;;;;;;11.05;9.07;;;39.50;37.70;;;;;;5116175;28;20032;-60
2023/08/24 08:31:48;;;;;;;11.10;8.48;;;39.40;37.60;;;;;;5116684;28;20366;-60
2023/08/24 08:34:15;;;;;;;10.60;8.70;;;39.30;37.90;;;;;;5116526;28;20019;-60
2023/08/24 08:36:41;;;;;;;10.95;8.18;;;39.20;37.80;;;;;;5116644;28;20016;-60
2023/08/24 08:39:08;;;;;;;9.93;7.97;;;39.20;37.90;;;;;;5116641;28;20027;-60
2023/08/24 08:41:41;;;;;;;11.05;8.50;;;39.20;37.80;;;;;;5116650;28;20043;-60
2023/08/24 08:44:09;;;;;;;10.52;8.50;;;39.20;37.60;;;;;;5116795;28;20023;-60
2023/08/24 08:46:35;;;;;;;9.10;7.75;;;39.10;37.50;;;;;;5116497;28;20016;-60
2023/08/24 08:49:02;;;;;;;11.02;8.45;;;39.10;37.50;;;;;;5116708;28;20073;-60
2023/08/24 08:51:29;;;;;;;12.75;8.60;;;39.10;37.60;;;;;;5115192;28;20379;-60
2023/08/24 08:53:56;;;;;;;10.07;8.20;;;39.10;37.80;;;;;;5116304;28;20031;-60
2023/08/24 08:56:22;;;;;;;10.38;8.57;;;39.00;37.70;;;;;;5116859;28;20019;-60
2023/08/24 08:58:49;;;;;;;10.68;8.80;;;39.00;37.70;;;;;;5115365;28;20035;-60
2023/08/24 09:01:17;;;;;;;11.65;8.95;;;39.00;37.90;;;;;;5116236;28;20454;-60
2023/08/24 09:03:44;;;;;;;12.40;8.80;;;38.90;37.70;;;;;;5116447;28;20046;-60
2023/08/24 09:06:10;;;;;;;9.80;8.65;;;38.90;37.40;;;;;;5116664;28;20365;-60
2023/08/24 09:08:37;;;;;;;10.85;7.85;;;38.80;37.30;;;;;;5116354;28;20031;-60
2023/08/24 09:11:03;;;;;;;12.57;8.77;;;38.70;37.60;;;;;;5116387;28;20029;-60
2023/08/24 09:13:30;;;;;;;9.43;8.05;;;38.70;37.70;;;;;;5115949;28;20027;-60
2023/08/24 09:16:05;;;;;;;10.52;9.20;;;38.70;38.00;;;;;;5116017;28;20031;-60
2023/08/24 09:18:39;;;;;;;11.52;8.35;;;38.70;37.80;;;;;;5116257;28;20102;-60
2023/08/24 09:21:09;;;;;;;11.60;8.15;;;38.60;38.00;;;;;;5115720;28;20020;-60
2023/08/24 09:23:35;;;;;;;10.75;8.07;;;38.50;38.40;;;;;;5115430;28;20027;-60
2023/08/24 09:26:01;;;;;;;9.85;7.90;;;38.50;38.40;;;;;;5116427;28;20016;-60
2023/08/24 09:28:27;;;;;;;11.32;8.23;;;38.50;38.50;;;;;;5116394;28;20033;-60
2023/08/24 09:30:57;;;;;;;13.05;9.02;;;38.60;38.40;;;;;;5116400;28;20042;-60
2023/08/24 09:33:25;;;;;;;14.43;9.13;;;38.60;38.10;;;;;;5115748;28;20023;-62
2023/08/24 09:35:55;;;;;;;10.15;8.13;;;38.50;38.00;;;;;;5116313;28;20071;-60
2023/08/24 09:38:23;;;;;;;9.15;7.82;;;38.40;38.30;;;;;;5115964;28;20045;-60
2023/08/24 09:40:54;;;;;;;10.65;8.82;;;38.40;38.50;;;;;;5116253;28;20425;-60
2023/08/24 09:43:21;;;;;;;16.10;8.98;;;38.40;38.60;;;;;;5115977;28;20027;-60
2023/08/24 09:45:57;;;;;;;10.88;8.15;;;38.40;38.60;;;;;;5115947;28;20020;-60
2023/08/24 09:48:24;;;;;;;13.18;9.13;;;38.40;38.60;;;;;;5116170;28;20031;-60
2023/08/24 09:50:51;;;;;;;13.98;9.38;;;38.40;38.70;;;;;;5115559;28;20381;-60
2023/08/24 09:53:22;;;;;;;12.45;8.77;;;38.40;38.70;;;;;;5114959;28;20069;-60
2023/08/24 09:55:58;;;;;;;12.52;9.48;;;38.30;38.80;;;;;;5115595;28;20023;-60
2023/08/24 09:58:25;;;;;;;12.43;9.45;;;38.20;38.80;;;;;;5116100;28;20023;-60
2023/08/24 10:00:51;;;;;;;11.38;9.13;;;38.20;38.90;;;;;;5115828;28;20015;-60
2023/08/24 10:03:24;;;;;;;12.10;8.85;;;38.00;39.10;;;;;;5115465;28;20077;-60
2023/08/24 10:05:53;;;;;;;12.25;9.25;;;38.00;39.20;;;;;;5115468;28;20043;-60
2023/08/24 10:08:26;;;;;;;10.88;9.00;;;38.00;39.50;;;;;;5114532;28;20042;-60
2023/08/24 10:10:59;;;;;;;13.70;9.48;;;38.00;39.40;;;;;;5116057;28;20023;-60
2023/08/24 10:13:43;;;;;;;12.70;8.73;;;38.00;39.50;;;;;;5115757;28;20193;-60
2023/08/24 10:16:12;;;;;;;12.07;8.55;;;38.00;39.80;;;;;;5115402;28;20038;-60
2023/08/24 10:18:40;;;;;;;9.93;8.38;;;38.00;39.70;;;;;;5115301;28;20019;-60
2023/08/24 10:21:08;;;;;;;15.82;9.00;;;38.00;39.70;;;;;;5115624;28;20037;-60
2023/08/24 10:23:38;;;;;;;13.40;10.05;;;38.00;39.90;;;;;;5115548;28;20053;-60
2023/08/24 10:26:07;;;;;;;14.05;9.40;;;38.00;39.70;;;;;;5115251;28;20028;-60
2023/08/24 10:28:33;;;;;;;14.32;9.52;;;37.90;39.80;;;;;;5115249;28;20477;-60
2023/08/24 10:31:01;;;;;;;11.85;9.05;;;37.90;40.00;;;;;;5115556;28;20084;-60
2023/08/24 10:33:28;;;;;;;10.90;9.13;;;37.90;40.10;;;;;;5117399;28;20032;-60
2023/08/24 10:35:55;;;;;;;10.35;7.85;;;37.80;40.30;;;;;;5119426;28;20027;-60
2023/08/24 10:38:28;;;;;;;11.65;8.65;;;37.90;40.30;;;;;;5118923;28;20031;-60
2023/08/24 10:41:01;;;;;;;13.80;8.90;;;37.90;40.30;;;;;;5118459;28;20028;-60
2023/08/24 10:43:27;;;;;;;11.10;8.70;;;37.90;40.20;;;;;;5119026;28;20024;-60
2023/08/24 10:45:57;;;;;;;10.52;8.38;;;37.90;40.40;;;;;;5119141;28;20061;-60
2023/08/24 10:48:24;;;;;;;11.65;8.77;;;37.90;40.30;;;;;;5117898;28;20039;-60
2023/08/24 10:51:23;;;;;;;9.98;8.40;;;37.90;40.10;;;;;;5118661;28;20048;-60
2023/08/24 10:53:53;;;;;;;12.25;9.10;;;38.00;40.30;;;;;;5056361;28;20402;-61
2023/08/24 10:56:20;;;;;;;13.52;8.95;;;38.00;39.70;;;;;;5056627;28;20032;-61
2023/08/24 10:58:47;;;;;;;12.57;8.98;;;37.90;39.70;;;;;;5056313;28;20076;-61
2023/08/24 11:01:17;;;;;;;9.55;8.55;;;37.80;39.60;;;;;;5056302;28;20029;-61
2023/08/24 11:03:56;;;;;;;12.27;8.82;;;37.80;39.70;;;;;;5056218;28;20037;-60
2023/08/24 11:06:23;;;;;;;11.60;8.48;;;37.70;39.50;;;;;;5039474;28;20036;-61
2023/08/24 11:09:06;;;;;;;12.32;8.52;;;37.70;39.50;;;;;;5056113;28;20025;-61
2023/08/24 11:11:32;;;;;;;11.48;8.57;;;37.60;39.30;;;;;;5056206;28;20120;-61
2023/08/24 11:14:26;;;;;;;10.27;8.50;;;37.50;39.50;;;;;;5055937;28;20029;-61
2023/08/24 11:16:54;;;;;;;11.20;7.60;;;37.50;39.20;;;;;;5039241;28;20504;-61
2023/08/24 11:19:20;;;;;;;10.27;8.25;;;37.50;39.20;;;;;;5055839;28;20434;-61
2023/08/24 11:21:46;;;;;;;13.30;9.07;;;37.50;39.10;;;;;;5055867;28;20032;-61
2023/08/24 11:24:13;;;;;;;10.80;8.90;;;37.50;39.00;;;;;;5055907;28;20130;-60
2023/08/24 11:26:51;;;;;;;10.48;7.95;;;37.50;38.90;;;;;;5056279;28;20426;-61
2023/08/24 11:29:21;;;;;;;9.40;7.60;;;37.30;39.30;;;;;;5066629;28;20054;-61
2023/08/24 11:31:47;;;;;;;8.95;7.50;;;37.30;39.40;;;;;;5118500;28;20424;-61
2023/08/24 11:34:16;;;;;;;10.52;8.20;;;37.40;39.50;;;;;;5117840;28;20024;-61
2023/08/24 11:36:49;;;;;;;10.65;8.55;;;37.50;39.20;;;;;;5116913;28;20081;-61
2023/08/24 11:39:17;;;;;;;9.70;8.15;;;37.50;39.10;;;;;;5116980;28;20055;-61
2023/08/24 11:41:44;;;;;;;12.35;8.38;;;37.40;39.30;;;;;;5118057;28;20120;-61
2023/08/24 11:44:10;;;;;;;11.82;8.57;;;37.40;39.50;;;;;;5117658;28;20353;-60
2023/08/24 11:46:37;;;;;;;12.00;8.57;;;37.40;39.50;;;;;;5116325;28;20026;-60
2023/08/24 11:49:06;;;;;;;11.35;8.55;;;37.40;39.70;;;;;;5117673;28;20106;-60
2023/08/24 11:51:37;;;;;;;13.40;8.55;;;37.40;39.90;;;;;;5117412;28;20044;-60
2023/08/24 11:54:04;;;;;;;9.93;8.68;;;37.50;40.20;;;;;;5117440;28;20028;-60
2023/08/24 11:56:40;;;;;;;10.55;8.98;;;37.40;40.10;;;;;;5116569;28;20445;-61
2023/08/24 11:59:10;;;;;;;10.73;8.43;;;37.40;40.10;;;;;;5117654;28;20055;-60
2023/08/24 12:01:40;;;;;;;12.80;8.50;;;37.30;40.20;;;;;;5117694;28;20042;-60
2023/08/24 12:04:07;;;;;;;11.07;8.32;;;37.40;40.30;;;;;;5117293;28;20072;-61
2023/08/24 12:06:33;;;;;;;11.88;8.55;;;37.40;40.20;;;;;;5117301;28;20444;-60
2023/08/24 12:09:06;;;;;;;12.32;9.13;;;37.40;40.30;;;;;;5117554;28;20035;-60
2023/08/24 12:11:36;;;;;;;11.73;8.93;;;37.40;40.30;;;;;;5117156;28;20119;-61
2023/08/24 12:14:04;;;;;;;11.38;7.68;;;37.40;40.30;;;;;;5117254;28;20117;-61
2023/08/24 12:16:32;;;;;;;12.32;8.60;;;37.40;40.40;;;;;;5117051;28;20035;-61
2023/08/24 12:19:02;;;;;;;10.35;7.90;;;37.40;40.10;;;;;;5117273;28;20023;-61
2023/08/24 12:21:29;;;;;;;13.95;8.77;;;37.50;40.10;;;;;;5117025;28;20103;-60
2023/08/24 12:24:05;;;;;;;11.48;8.10;;;37.50;39.70;;;;;;5117494;28;20353;-60
2023/08/24 12:26:35;;;;;;;10.65;8.40;;;37.50;39.60;;;;;;5116046;28;20019;-60
2023/08/24 12:29:05;;;;;;;11.07;7.95;;;37.40;39.60;;;;;;5116839;28;20107;-60
2023/08/24 12:31:31;;;;;;;11.32;8.55;;;37.40;39.60;;;;;;5116765;28;20386;-60
2023/08/24 12:34:11;;;;;;;10.57;8.20;;;37.40;39.50;;;;;;5116751;28;20012;-60
2023/08/24 12:36:39;;;;;;;12.50;8.70;;;37.40;39.70;;;;;;5117025;28;20039;-60
2023/08/24 12:39:07;;;;;;;9.80;7.88;;;37.30;39.90;;;;;;5117174;28;20023;-60